Terminal Aerodrome Forecast
Issued by NWS

Home | Current Version | Previous Version | Graphics & Text | Print | Product List | Glossary On
Versions: 1 2 3 4 5 6 7 8 9 10 11 12 13 14 15 16 17 18
252
FTUS43 KGRB 180355 AAA
TAFAUW
TAF AMD
KAUW 180355Z 1804/1824 35006KT P6SM OVC030
     FM180900 03005KT P6SM BKN025
     FM181300 05006KT P6SM OVC016
     FM181600 05008KT P6SM OVC010
     FM182100 02008KT 2SM -SN OVC015=

USA.gov is the U.S. government's official web portal to all federal, state and local government web resources and services.